Time;durP1;ratioP1;P1;durP2;ratioP2;P2;SDS_P1;SDS_P2;PMS_P1;PMS_P2;Temp;Humidity;BMP_temperature;BMP_pressure;BME280_temperature;BME280_humidity;BME280_pressure;Samples;Min_cycle;Max_cycle;Signal;HPM_P1;HPM_P2
2022/03/27 00:02:11;;;;;;;0.85;0.28;;;;;;;0.05;54.90;97553.63;5073377;28;20037;-58
2022/03/27 00:04:37;;;;;;;0.85;0.40;;;;;;;0.11;55.06;97579.47;5055293;28;20096;-57
2022/03/27 00:07:03;;;;;;;1.42;0.40;;;;;;;0.00;54.23;97574.19;5074038;28;20035;-60
2022/03/27 00:09:29;;;;;;;3.58;0.30;;;;;;;-0.33;54.60;97530.97;5072993;28;20056;-54
2022/03/27 00:11:54;;;;;;;0.45;0.15;;;;;;;-0.11;54.15;97577.59;5072577;28;20489;-55
2022/03/27 00:14:20;;;;;;;0.55;0.20;;;;;;;-0.12;54.15;97577.69;5072071;28;20390;-60
2022/03/27 00:16:45;;;;;;;1.08;0.22;;;;;;;-0.09;53.70;97587.97;5072295;28;20025;-61
2022/03/27 00:19:11;;;;;;;0.98;0.45;;;;;;;-0.10;53.82;97586.31;5072968;28;20443;-57
2022/03/27 00:21:38;;;;;;;0.93;0.20;;;;;;;0.04;53.83;97585.28;5073668;28;20116;-59
2022/03/27 00:24:04;;;;;;;0.80;0.30;;;;;;;-0.08;53.38;97585.25;5073023;28;20028;-55
2022/03/27 00:26:30;;;;;;;0.57;0.20;;;;;;;-0.15;52.95;97579.59;5072376;28;20419;-61
2022/03/27 00:28:56;;;;;;;0.30;0.20;;;;;;;-0.20;53.28;97581.72;5073150;28;20047;-61
2022/03/27 00:31:21;;;;;;;0.50;0.30;;;;;;;-0.20;53.31;97579.09;5072988;28;20024;-57
2022/03/27 00:33:47;;;;;;;0.68;0.30;;;;;;;-0.23;53.35;97573.22;5051236;28;20041;-57
2022/03/27 00:36:14;;;;;;;0.75;0.30;;;;;;;-0.13;53.87;97589.16;5052864;28;20399;-58
2022/03/27 00:38:41;;;;;;;3.35;0.32;;;;;;;-0.34;53.89;97539.81;5052979;28;20440;-63
2022/03/27 00:41:06;;;;;;;1.02;0.50;;;;;;;-0.08;53.63;97580.00;5052210;28;20036;-57
2022/03/27 00:43:33;;;;;;;0.45;0.20;;;;;;;-0.10;53.43;97584.53;5051243;28;20021;-59
2022/03/27 00:45:59;;;;;;;0.60;0.20;;;;;;;-0.18;55.01;97590.34;5052206;28;20581;-58
2022/03/27 00:48:25;;;;;;;0.38;0.20;;;;;;;-0.19;55.35;97593.94;5052941;28;20454;-58
2022/03/27 00:50:53;;;;;;;3.10;0.30;;;;;;;-0.48;55.21;97546.91;5052157;28;20037;-59
2022/03/27 00:53:19;;;;;;;0.30;0.20;;;;;;;-0.24;56.02;97588.16;5052249;28;20156;-58
2022/03/27 00:55:45;;;;;;;0.30;0.20;;;;;;;-0.25;55.95;97590.88;5052680;28;20033;-59
2022/03/27 00:58:12;;;;;;;0.55;0.38;;;;;;;-0.26;56.43;97597.94;5052443;28;20029;-59
2022/03/27 01:00:37;;;;;;;0.38;0.20;;;;;;;-0.24;56.42;97597.81;5052205;28;20025;-59
2022/03/27 01:03:07;;;;;;;0.88;0.40;;;;;;;-0.28;57.33;97599.81;5052066;28;20036;-59
2022/03/27 01:05:33;;;;;;;1.38;0.30;;;;;;;-0.36;56.85;97594.28;5052280;28;20028;-60
2022/03/27 01:08:04;;;;;;;0.20;0.20;;;;;;;-0.34;56.67;97601.13;5050730;28;20036;-57
2022/03/27 01:10:29;;;;;;;0.22;0.20;;;;;;;-0.41;57.52;97591.97;5052171;28;20024;-60
2022/03/27 01:12:55;;;;;;;0.50;0.20;;;;;;;-0.46;58.53;97597.59;5051257;28;20075;-59
2022/03/27 01:15:30;;;;;;;0.57;0.30;;;;;;;-0.37;58.53;97606.59;5051961;28;20128;-60
2022/03/27 01:17:55;;;;;;;0.32;0.20;;;;;;;-0.39;58.77;97612.91;5052493;28;20114;-57
2022/03/27 01:20:35;;;;;;;1.10;0.20;;;;;;;-0.38;58.90;97606.72;5052352;28;20458;-59
2022/03/27 01:23:06;;;;;;;1.85;0.30;;;;;;;-0.46;58.85;97616.00;5052212;28;20461;-56
2022/03/27 01:25:31;;;;;;;0.63;0.20;;;;;;;-0.47;59.09;97611.69;5052620;28;20101;-59
2022/03/27 01:27:57;;;;;;;1.05;0.40;;;;;;;-0.51;59.20;97619.88;5052421;28;20485;-57
2022/03/27 01:30:22;;;;;;;0.70;0.30;;;;;;;-0.65;59.08;97597.22;5051725;28;20040;-56
2022/03/27 01:32:51;;;;;;;1.33;0.30;;;;;;;-0.53;59.51;97621.78;5051393;28;20163;-58
2022/03/27 01:35:19;;;;;;;0.30;0.20;;;;;;;-0.53;59.16;97638.38;5068929;28;20056;-61
2022/03/27 01:37:48;;;;;;;1.55;0.40;;;;;;;-0.54;59.21;97631.44;5053991;28;20123;-57
2022/03/27 01:40:14;;;;;;;0.30;0.20;;;;;;;-0.64;59.39;97622.53;5071547;28;20033;-59
2022/03/27 01:42:39;;;;;;;1.13;0.30;;;;;;;-0.70;59.29;97615.91;5071800;28;20462;-58
2022/03/27 01:45:06;;;;;;;0.70;0.30;;;;;;;-0.73;59.53;97642.41;5053798;28;20453;-59
2022/03/27 01:47:32;;;;;;;0.38;0.20;;;;;;;-0.77;59.59;97622.56;5071248;28;20036;-58
2022/03/27 01:49:58;;;;;;;0.52;0.20;;;;;;;-0.67;59.08;97646.41;5071640;28;20036;-58
2022/03/27 01:52:23;;;;;;;0.20;0.20;;;;;;;-0.74;60.22;97625.78;5070193;28;20021;-60
2022/03/27 01:54:49;;;;;;;0.80;0.38;;;;;;;-0.78;59.24;97637.47;5070663;28;20123;-60
2022/03/27 01:57:15;;;;;;;1.45;0.40;;;;;;;-0.74;59.63;97651.25;5070144;28;20500;-60
2022/03/27 01:59:41;;;;;;;0.30;0.28;;;;;;;-0.69;59.65;97658.81;5053049;28;20034;-58
2022/03/27 02:02:06;;;;;;;0.50;0.25;;;;;;;-0.75;59.33;97639.88;5071064;28;20123;-59
2022/03/27 02:04:32;;;;;;;0.57;0.20;;;;;;;-0.68;58.72;97650.81;5070558;28;20028;-59
2022/03/27 02:06:58;;;;;;;2.63;0.30;;;;;;;-0.71;59.55;97665.97;5070855;28;20051;-58
2022/03/27 02:09:24;;;;;;;2.70;0.30;;;;;;;-0.66;59.25;97659.44;5071462;28;20032;-55
2022/03/27 02:11:49;;;;;;;0.73;0.20;;;;;;;-0.76;59.68;97643.47;5070655;28;20024;-58
2022/03/27 02:14:15;;;;;;;1.13;0.30;;;;;;;-0.65;59.34;97661.13;5053013;28;20441;-57
2022/03/27 02:16:41;;;;;;;0.50;0.20;;;;;;;-0.87;60.52;97653.88;5053293;28;20098;-59
2022/03/27 02:19:11;;;;;;;1.38;0.30;;;;;;;-0.80;61.38;97673.53;5070979;28;20131;-59
2022/03/27 02:21:38;;;;;;;2.47;0.30;;;;;;;-0.80;61.19;97684.03;5070642;28;20497;-61
2022/03/27 02:24:04;;;;;;;4.20;0.40;;;;;;;-0.82;61.30;97671.97;5036499;28;20093;-60
2022/03/27 02:26:30;;;;;;;0.85;0.30;;;;;;;-0.84;60.48;97677.31;5071162;28;20472;-57
2022/03/27 02:28:56;;;;;;;1.55;0.50;;;;;;;-1.01;61.35;97657.47;5052907;28;20164;-55
2022/03/27 02:31:21;;;;;;;3.83;0.35;;;;;;;-0.87;61.60;97682.78;5070325;28;20052;-62
2022/03/27 02:33:47;;;;;;;1.75;0.30;;;;;;;-0.84;62.12;97682.56;5070565;28;20040;-56
2022/03/27 02:36:13;;;;;;;0.73;0.40;;;;;;;-0.90;61.83;97683.81;5070973;28;20039;-58
2022/03/27 02:38:39;;;;;;;1.70;0.38;;;;;;;-0.93;62.00;97672.69;5069001;28;20062;-60
2022/03/27 02:41:04;;;;;;;1.30;0.22;;;;;;;-0.82;61.96;97688.56;5070328;28;20040;-60
2022/03/27 02:43:30;;;;;;;0.75;0.30;;;;;;;-0.89;61.44;97703.06;5070778;28;20025;-60
2022/03/27 02:45:56;;;;;;;0.50;0.20;;;;;;;-0.94;62.07;97702.53;5070441;28;20033;-57
2022/03/27 02:48:22;;;;;;;1.80;0.45;;;;;;;-1.23;61.76;97653.66;5051836;28;20032;-58
2022/03/27 02:50:47;;;;;;;0.82;0.30;;;;;;;-1.23;62.18;97677.28;5069885;28;20020;-59
2022/03/27 02:53:13;;;;;;;1.17;0.40;;;;;;;-1.34;62.02;97659.63;5071123;28;20055;-57
2022/03/27 02:55:39;;;;;;;2.13;0.60;;;;;;;-1.08;62.30;97717.44;5052598;28;20410;-60
2022/03/27 02:58:05;;;;;;;2.90;0.40;;;;;;;-1.12;62.26;97715.97;5069792;28;20044;-58
2022/03/27 03:00:30;;;;;;;2.03;0.32;;;;;;;-1.06;61.45;97741.81;5070937;28;20388;-59
2022/03/27 03:02:57;;;;;;;1.00;0.40;;;;;;;-1.12;61.40;97731.72;5071135;28;20086;-58
2022/03/27 03:05:22;;;;;;;2.00;0.40;;;;;;;-1.14;61.80;97732.75;5070421;28;20033;-60
2022/03/27 03:07:50;;;;;;;0.57;0.32;;;;;;;-1.22;61.86;97751.63;5069997;28;20086;-59
2022/03/27 03:10:15;;;;;;;2.65;0.50;;;;;;;-1.25;62.25;97746.59;5070810;28;20032;-62
2022/03/27 03:12:41;;;;;;;3.72;0.60;;;;;;;-1.18;61.62;97743.47;5071149;28;20031;-61
2022/03/27 03:15:08;;;;;;;2.72;0.82;;;;;;;-1.11;61.82;97745.69;5070442;28;20032;-62
2022/03/27 03:17:35;;;;;;;1.65;0.75;;;;;;;-1.22;61.86;97744.63;5069999;28;20039;-61
2022/03/27 03:20:00;;;;;;;1.95;0.90;;;;;;;-1.21;61.89;97748.91;5070638;28;20377;-58
2022/03/27 03:22:27;;;;;;;4.00;1.00;;;;;;;-1.18;62.12;97758.41;5070769;28;20024;-59
2022/03/27 03:24:52;;;;;;;3.03;1.30;;;;;;;-1.22;61.54;97767.38;5070428;28;20028;-59
2022/03/27 03:27:18;;;;;;;3.20;0.77;;;;;;;-1.41;61.62;97721.38;5070033;28;20470;-58
2022/03/27 03:29:45;;;;;;;2.67;1.08;;;;;;;-1.16;62.34;97767.84;5070401;28;20028;-58
2022/03/27 03:32:10;;;;;;;4.68;0.73;;;;;;;-1.10;62.11;97784.13;5070685;28;20484;-59
2022/03/27 03:34:36;;;;;;;1.10;0.70;;;;;;;-1.18;61.77;97789.91;5069983;28;20056;-61
2022/03/27 03:37:03;;;;;;;2.55;0.90;;;;;;;-1.24;60.94;97799.03;5070265;28;20135;-61
2022/03/27 03:39:28;;;;;;;1.95;0.90;;;;;;;-1.49;61.65;97763.00;5052009;28;20112;-61
2022/03/27 03:41:54;;;;;;;5.45;0.80;;;;;;;-1.23;60.69;97808.56;5069534;28;20111;-58
2022/03/27 03:44:19;;;;;;;2.28;0.88;;;;;;;-1.51;60.94;97764.88;5069898;28;20389;-59
2022/03/27 03:46:46;;;;;;;3.72;0.75;;;;;;;-1.31;60.06;97798.56;5052140;28;20033;-54
2022/03/27 03:49:12;;;;;;;2.17;0.50;;;;;;;-1.30;58.63;97812.56;5070882;28;20028;-61
2022/03/27 03:51:38;;;;;;;4.70;0.57;;;;;;;-1.36;57.94;97831.31;5072800;28;20107;-56
2022/03/27 03:54:06;;;;;;;0.80;0.40;;;;;;;-1.41;57.88;97834.25;5073019;28;20563;-56
2022/03/27 03:56:32;;;;;;;2.00;0.40;;;;;;;-1.42;57.07;97834.31;5073276;28;20384;-60
2022/03/27 03:58:58;;;;;;;1.85;0.20;;;;;;;-1.38;56.62;97833.19;5073468;28;20024;-60
2022/03/27 04:01:24;;;;;;;1.40;0.35;;;;;;;-1.32;57.00;97840.69;5072887;28;20036;-60
2022/03/27 04:03:50;;;;;;;1.25;0.30;;;;;;;-1.30;56.82;97850.13;5073785;28;20433;-60
2022/03/27 04:06:16;;;;;;;0.80;0.30;;;;;;;-1.31;56.98;97843.19;5073306;28;20115;-60
2022/03/27 04:08:41;;;;;;;3.92;0.30;;;;;;;-1.27;57.19;97851.72;5072900;28;20032;-61
2022/03/27 04:11:07;;;;;;;2.08;0.30;;;;;;;-1.18;56.40;97876.56;5072918;28;20036;-61
2022/03/27 04:13:32;;;;;;;1.05;0.30;;;;;;;-1.56;56.93;97816.84;5054237;28;20028;-61
2022/03/27 04:15:58;;;;;;;1.65;0.50;;;;;;;-1.26;56.92;97876.19;5073159;28;20036;-61
2022/03/27 04:18:25;;;;;;;2.53;0.60;;;;;;;-1.17;56.66;97883.50;5072939;28;20043;-54
2022/03/27 04:20:51;;;;;;;3.30;0.63;;;;;;;-1.22;56.66;97898.69;5055645;28;20036;-55
2022/03/27 04:23:17;;;;;;;1.25;0.40;;;;;;;-1.24;56.26;97897.94;5073079;28;20426;-59
2022/03/27 04:25:42;;;;;;;1.02;0.47;;;;;;;-1.35;56.19;97902.09;5054699;28;20020;-65
2022/03/27 04:28:10;;;;;;;1.95;0.40;;;;;;;-1.39;56.24;97897.97;5072623;28;20686;-65
2022/03/27 04:30:37;;;;;;;3.15;0.32;;;;;;;-1.41;56.37;97902.50;5073009;28;20051;-63
2022/03/27 04:33:03;;;;;;;2.42;0.50;;;;;;;-1.41;55.73;97904.25;5072443;28;20115;-64
2022/03/27 04:35:29;;;;;;;2.80;0.47;;;;;;;-1.25;55.02;97927.75;5072519;28;20051;-64
2022/03/27 04:37:55;;;;;;;1.02;0.45;;;;;;;-1.27;56.02;97934.91;5055150;28;20040;-63
2022/03/27 04:40:20;;;;;;;0.80;0.40;;;;;;;-1.25;55.49;97935.63;5072949;28;20033;-62
2022/03/27 04:42:46;;;;;;;4.88;0.70;;;;;;;-1.18;55.59;97952.72;5073363;28;20048;-64
2022/03/27 04:45:12;;;;;;;4.50;0.40;;;;;;;-1.09;55.56;97964.41;5072232;28;20108;-64
2022/03/27 04:47:39;;;;;;;4.55;0.40;;;;;;;-1.04;54.38;97965.81;5072641;28;20547;-65
2022/03/27 04:50:08;;;;;;;1.42;0.50;;;;;;;-1.05;54.96;97953.63;5055075;28;20028;-63
2022/03/27 04:52:34;;;;;;;2.28;0.47;;;;;;;-1.08;54.99;97948.56;5072321;28;20090;-64
2022/03/27 04:55:00;;;;;;;0.77;0.50;;;;;;;-0.95;53.72;97953.06;5072738;28;20039;-66
2022/03/27 04:57:32;;;;;;;2.47;0.60;;;;;;;-0.66;53.17;97979.25;5073171;28;20033;-68
2022/03/27 04:59:58;;;;;;;0.68;0.30;;;;;;;-0.62;52.53;97992.06;5072587;28;20074;-67
2022/03/27 05:02:23;;;;;;;3.08;0.40;;;;;;;-0.57;51.00;97975.19;5070696;28;20044;-66
2022/03/27 05:04:49;;;;;;;1.30;0.40;;;;;;;-0.44;51.38;97992.69;5054986;28;20032;-65
2022/03/27 05:07:14;;;;;;;4.88;0.40;;;;;;;-0.29;51.38;97971.56;5071402;28;20038;-68
2022/03/27 05:09:40;;;;;;;1.15;0.60;;;;;;;-0.11;50.14;97994.97;5072444;28;20135;-67
2022/03/27 05:12:06;;;;;;;0.80;0.30;;;;;;;0.25;49.86;98004.81;5054297;28;20024;-66
2022/03/27 05:14:31;;;;;;;1.45;0.32;;;;;;;0.91;47.14;97979.31;5071161;28;20036;-66
2022/03/27 05:16:57;;;;;;;0.98;0.40;;;;;;;1.67;44.57;97979.16;5054418;28;20082;-63
2022/03/27 05:19:22;;;;;;;1.42;0.40;;;;;;;2.31;43.25;97983.19;5072262;28;20037;-70
2022/03/27 05:21:49;;;;;;;1.20;0.57;;;;;;;3.10;40.47;98005.34;5071750;28;20055;-66
2022/03/27 05:24:14;;;;;;;0.77;0.35;;;;;;;3.33;39.37;97987.66;5071534;28;20036;-66
2022/03/27 05:26:40;;;;;;;4.03;1.63;;;;;;;3.55;39.33;98005.25;5071279;28;20870;-66
2022/03/27 05:29:08;;;;;;;1.02;0.35;;;;;;;3.76;38.03;98028.31;5070924;28;20435;-65
2022/03/27 05:31:34;;;;;;;0.45;0.25;;;;;;;3.99;37.47;98015.84;5071332;28;20081;-65
2022/03/27 05:34:00;;;;;;;2.00;0.40;;;;;;;4.51;37.30;98027.50;5071203;28;20044;-67
2022/03/27 05:36:26;;;;;;;1.73;0.60;;;;;;;4.84;36.41;98033.56;5071390;28;20364;-66
2022/03/27 05:38:52;;;;;;;3.38;0.30;;;;;;;4.91;36.76;98033.84;5071320;28;20484;-64
2022/03/27 05:41:17;;;;;;;2.65;0.20;;;;;;;4.82;35.15;98040.78;5071521;28;20036;-65
2022/03/27 05:43:43;;;;;;;1.35;0.50;;;;;;;4.13;35.71;98004.09;5071348;28;20033;-68
2022/03/27 05:46:08;;;;;;;3.40;0.93;;;;;;;3.96;36.63;98039.91;5052794;28;20024;-67
2022/03/27 05:48:34;;;;;;;2.95;0.50;;;;;;;3.72;36.89;98053.34;5070410;28;20025;-64
2022/03/27 05:50:59;;;;;;;1.33;0.50;;;;;;;3.29;38.33;98050.53;5071032;28;20054;-66
2022/03/27 05:53:25;;;;;;;2.50;0.68;;;;;;;2.53;40.88;98047.59;5070844;28;20116;-65
2022/03/27 05:55:50;;;;;;;3.00;0.60;;;;;;;1.79;43.30;98065.31;5036558;28;20039;-68
2022/03/27 05:58:16;;;;;;;3.13;0.90;;;;;;;1.11;45.43;98075.41;5071235;28;20060;-68
2022/03/27 06:00:42;;;;;;;1.67;0.70;;;;;;;0.54;47.72;98057.28;5071564;28;20060;-69
2022/03/27 06:03:08;;;;;;;4.43;1.40;;;;;;;0.18;49.14;98081.66;5053542;28;20469;-66
2022/03/27 06:05:33;;;;;;;5.55;1.80;;;;;;;-0.16;50.04;98082.94;5070874;28;20538;-67
2022/03/27 06:07:59;;;;;;;1.92;1.13;;;;;;;-0.32;51.52;98092.75;5070571;28;20032;-67
2022/03/27 06:10:31;;;;;;;5.22;0.60;;;;;;;-0.34;52.38;98094.63;5070839;28;20503;-65
2022/03/27 06:12:57;;;;;;;1.95;0.80;;;;;;;-0.26;52.83;98081.81;5069803;28;20462;-69
2022/03/27 06:15:23;;;;;;;1.70;0.75;;;;;;;-0.09;51.61;98098.31;5071413;28;20032;-67
2022/03/27 06:17:51;;;;;;;4.32;0.60;;;;;;;0.19;49.32;98096.50;5070940;28;20181;-64
2022/03/27 06:20:20;;;;;;;4.22;0.88;;;;;;;0.29;48.19;98097.59;5070625;28;20036;-67
2022/03/27 06:22:46;;;;;;;4.90;0.50;;;;;;;0.69;47.54;98091.44;5070812;28;20056;-67
2022/03/27 06:25:14;;;;;;;1.08;0.40;;;;;;;1.33;44.20;98113.47;5071118;28;20106;-65
2022/03/27 06:27:40;;;;;;;3.03;0.40;;;;;;;1.75;42.09;98094.69;5070959;28;20036;-65
2022/03/27 06:30:09;;;;;;;2.88;0.50;;;;;;;2.45;43.11;98111.56;5070395;28;20029;-66
2022/03/27 06:32:36;;;;;;;2.08;0.40;;;;;;;3.90;39.02;98111.06;5070950;28;20104;-66
2022/03/27 06:35:04;;;;;;;1.60;0.40;;;;;;;4.66;37.75;98126.06;5070524;28;20482;-65
2022/03/27 06:37:31;;;;;;;1.88;0.57;;;;;;;5.11;36.69;98131.13;5069170;28;20044;-66
2022/03/27 06:39:57;;;;;;;3.08;0.60;;;;;;;4.96;35.29;98127.97;5052567;28;20063;-65
2022/03/27 06:42:26;;;;;;;2.53;0.50;;;;;;;4.25;35.30;98126.75;5071169;28;20422;-66
2022/03/27 06:44:52;;;;;;;3.70;0.88;;;;;;;3.69;37.33;98143.59;5070998;28;20036;-70
2022/03/27 06:47:22;;;;;;;2.28;0.75;;;;;;;3.86;37.72;98145.75;5052142;28;20040;-67
2022/03/27 06:49:48;;;;;;;6.22;0.85;;;;;;;4.12;35.42;98149.88;5069916;28;20381;-66
2022/03/27 06:52:15;;;;;;;5.55;1.02;;;;;;;4.11;36.11;98164.09;5070632;28;20036;-70
2022/03/27 06:54:42;;;;;;;3.28;1.17;;;;;;;3.67;36.52;98169.34;5070594;28;20501;-69
2022/03/27 06:57:08;;;;;;;2.60;0.70;;;;;;;3.38;37.40;98164.53;5052037;28;20047;-66
2022/03/27 07:05:04;;;;;;;2.00;1.10;;;;;;;1.96;39.75;98185.50;5070222;28;20544;-68
2022/03/27 07:07:30;;;;;;;1.75;0.60;;;;;;;1.67;39.58;98195.47;5070174;28;20029;-67
2022/03/27 07:09:56;;;;;;;2.47;0.77;;;;;;;1.51;40.63;98208.91;5070294;28;20499;-58
2022/03/27 07:12:22;;;;;;;5.82;0.80;;;;;;;1.43;40.12;98201.50;5071060;28;20032;-67
2022/03/27 07:14:48;;;;;;;2.67;0.52;;;;;;;1.63;39.75;98186.97;5070162;28;20366;-68
2022/03/27 07:17:15;;;;;;;1.48;0.50;;;;;;;2.44;38.82;98199.69;5070125;28;20553;-67
2022/03/27 07:19:41;;;;;;;3.22;0.70;;;;;;;3.99;35.32;98203.84;5070130;28;20386;-69
2022/03/27 07:22:07;;;;;;;3.25;0.70;;;;;;;4.91;32.93;98201.78;5070195;28;20067;-68
2022/03/27 07:24:32;;;;;;;5.55;0.70;;;;;;;5.19;32.33;98211.88;5071978;28;20068;-67
2022/03/27 07:26:58;;;;;;;2.03;0.65;;;;;;;5.21;32.65;98232.00;5074080;28;20031;-67
2022/03/27 07:29:23;;;;;;;1.92;0.77;;;;;;;5.08;32.29;98228.72;5074102;28;20054;-63
2022/03/27 07:31:49;;;;;;;2.30;0.82;;;;;;;4.75;33.33;98234.03;5073658;28;20021;-69
2022/03/27 07:34:16;;;;;;;1.55;0.85;;;;;;;4.12;33.27;98240.81;5073943;28;20045;-70
2022/03/27 07:36:42;;;;;;;2.60;1.02;;;;;;;3.27;35.36;98244.72;5072874;28;20101;-67
2022/03/27 07:39:09;;;;;;;2.40;0.90;;;;;;;2.49;37.58;98249.56;5072137;28;20542;-66
2022/03/27 07:41:35;;;;;;;1.20;0.65;;;;;;;1.85;39.18;98254.06;5055316;28;20085;-65
2022/03/27 07:44:01;;;;;;;6.05;1.10;;;;;;;1.36;40.25;98250.38;5073491;28;20330;-65
2022/03/27 07:46:26;;;;;;;2.35;0.90;;;;;;;1.29;40.82;98266.59;5055868;28;20028;-60
2022/03/27 07:48:52;;;;;;;1.88;0.73;;;;;;;1.51;39.50;98270.44;5073536;28;20025;-63
2022/03/27 07:51:17;;;;;;;4.57;0.90;;;;;;;1.56;39.45;98268.31;5073113;28;20035;-63
2022/03/27 07:53:43;;;;;;;1.60;0.77;;;;;;;1.63;38.74;98278.44;5073572;28;20385;-63
2022/03/27 07:56:09;;;;;;;0.88;0.52;;;;;;;1.39;40.38;98284.44;5073158;28;20025;-62
2022/03/27 07:58:34;;;;;;;1.30;0.85;;;;;;;1.27;40.86;98279.06;5073089;28;20367;-64
2022/03/27 08:01:00;;;;;;;3.95;0.95;;;;;;;1.35;40.94;98294.38;5073410;28;20020;-64
2022/03/27 08:03:26;;;;;;;2.03;1.02;;;;;;;1.50;39.65;98297.75;5073837;28;20363;-63
2022/03/27 08:05:51;;;;;;;2.72;0.90;;;;;;;1.78;37.73;98309.06;5073338;28;20519;-64
2022/03/27 08:08:17;;;;;;;1.50;0.70;;;;;;;1.69;38.01;98275.41;5073319;28;20970;-65
2022/03/27 08:10:43;;;;;;;2.60;0.70;;;;;;;1.76;37.87;98308.31;5073640;28;20029;-65
2022/03/27 08:13:09;;;;;;;3.10;0.85;;;;;;;1.54;38.28;98307.13;5073445;28;20187;-68
2022/03/27 08:15:34;;;;;;;4.03;1.15;;;;;;;1.05;39.16;98310.44;5072498;28;20115;-67
2022/03/27 08:18:00;;;;;;;6.72;1.40;;;;;;;0.64;40.65;98322.72;5072840;28;20119;-64
2022/03/27 08:20:27;;;;;;;4.97;1.20;;;;;;;0.47;42.04;98314.09;5055291;28;20500;-71
2022/03/27 08:22:54;;;;;;;4.45;1.30;;;;;;;0.56;42.18;98328.47;5072305;28;20032;-68
2022/03/27 08:28:07;;;;;;;6.60;1.40;;;;;;;0.69;41.74;98329.34;5068918;28;20136;-64
2022/03/27 08:30:33;;;;;;;3.42;1.00;;;;;;;0.77;40.75;98355.22;5063062;28;20539;-65
2022/03/27 08:32:58;;;;;;;2.90;1.10;;;;;;;0.76;39.69;98310.53;5072228;28;20025;-69
2022/03/27 08:35:24;;;;;;;3.10;1.00;;;;;;;1.15;38.84;98316.75;5071682;28;20045;-66
2022/03/27 08:37:49;;;;;;;2.53;1.00;;;;;;;1.21;38.44;98310.25;5072015;28;20041;-64
2022/03/27 08:40:15;;;;;;;1.55;0.85;;;;;;;1.80;38.49;98348.50;5054840;28;20024;-63
2022/03/27 08:42:43;;;;;;;8.27;1.88;;;;;;;2.32;37.34;98346.69;5072137;28;20118;-62
2022/03/27 08:45:09;;;;;;;5.00;1.35;;;;;;;2.75;35.88;98357.81;5071782;28;20033;-68
2022/03/27 08:47:39;;;;;;;1.95;1.10;;;;;;;2.62;37.09;98356.03;5062229;28;20049;-68
2022/03/27 08:50:27;;;;;;;3.08;1.27;;;;;;;2.24;37.71;98370.16;5071106;28;20028;-60
2022/03/27 08:53:01;;;;;;;2.33;1.10;;;;;;;1.92;38.72;98371.44;5051667;28;20068;-64
2022/03/27 08:55:47;;;;;;;2.38;0.88;;;;;;;1.83;38.38;98378.19;5066839;28;20024;-60
2022/03/27 08:58:12;;;;;;;2.67;0.90;;;;;;;2.04;36.22;98377.66;5051952;28;20029;-63
2022/03/27 09:00:39;;;;;;;1.58;0.70;;;;;;;2.23;36.76;98377.22;5067169;28;20139;-62
2022/03/27 09:03:06;;;;;;;2.03;0.80;;;;;;;2.35;35.91;98385.28;5071697;28;20030;-62
2022/03/27 09:05:38;;;;;;;4.43;1.10;;;;;;;2.26;36.69;98382.31;5071576;28;20416;-63
2022/03/27 09:08:09;;;;;;;5.95;1.00;;;;;;;2.34;36.86;98389.69;5054271;28;20469;-62
2022/03/27 09:10:35;;;;;;;2.00;0.80;;;;;;;2.47;36.51;98400.25;5070943;28;20060;-63
2022/03/27 09:13:01;;;;;;;1.77;1.00;;;;;;;2.46;35.96;98410.94;5070993;28;20024;-62
2022/03/27 09:15:27;;;;;;;3.00;0.93;;;;;;;2.32;36.24;98422.47;5070749;28;20113;-63
2022/03/27 09:17:59;;;;;;;3.30;1.02;;;;;;;1.99;37.49;98416.75;5071222;28;20037;-64
2022/03/27 09:20:39;;;;;;;7.57;0.95;;;;;;;1.89;38.27;98423.56;5071755;28;20063;-58
2022/03/27 09:23:21;;;;;;;3.35;1.00;;;;;;;2.25;38.19;98425.50;5071403;28;20412;-64
2022/03/27 09:25:57;;;;;;;5.93;1.15;;;;;;;2.83;36.48;98422.38;5070555;28;20475;-62
2022/03/27 09:28:24;;;;;;;4.45;1.17;;;;;;;3.17;34.77;98424.41;5070678;28;20020;-63
2022/03/27 09:30:50;;;;;;;4.57;1.25;;;;;;;3.25;35.10;98426.47;5051841;28;20862;-65
2022/03/27 09:33:34;;;;;;;2.50;1.60;;;;;;;2.99;36.03;98450.34;5070227;28;20036;-62
2022/03/27 09:36:05;;;;;;;2.85;0.93;;;;;;;2.49;38.21;98451.19;5070224;28;20043;-65
2022/03/27 09:38:30;;;;;;;1.27;0.88;;;;;;;2.48;38.53;98440.72;5070353;28;20040;-58
2022/03/27 09:40:56;;;;;;;4.15;1.10;;;;;;;2.70;37.83;98448.84;5053112;28;20036;-64
2022/03/27 09:43:22;;;;;;;4.80;1.00;;;;;;;2.85;37.75;98467.19;5071538;28;20024;-64
2022/03/27 09:46:02;;;;;;;5.65;0.70;;;;;;;2.57;38.74;98466.50;5071128;28;20037;-65
2022/03/27 09:48:31;;;;;;;3.78;0.80;;;;;;;1.99;40.14;98483.56;5071263;28;20066;-65
2022/03/27 09:51:01;;;;;;;4.47;0.80;;;;;;;1.62;42.29;98483.38;5071647;28;20038;-67
2022/03/27 09:53:31;;;;;;;2.80;0.90;;;;;;;1.47;42.97;98466.78;5071243;28;20032;-67
2022/03/27 09:55:57;;;;;;;2.38;0.80;;;;;;;1.88;41.91;98477.31;5071255;28;20166;-66
2022/03/27 09:58:36;;;;;;;1.63;1.00;;;;;;;2.31;40.57;98455.09;5070994;28;20040;-65
2022/03/27 10:01:16;;;;;;;3.85;1.38;;;;;;;2.80;39.84;98475.47;5071124;28;20032;-60
2022/03/27 10:04:00;;;;;;;5.80;1.50;;;;;;;3.19;38.52;98491.25;5061158;28;20059;-65
2022/03/27 10:06:28;;;;;;;3.47;1.10;;;;;;;2.70;38.87;98491.13;5071211;28;20045;-65
2022/03/27 10:08:53;;;;;;;1.67;0.93;;;;;;;2.07;42.00;98519.19;5069907;28;20092;-66
2022/03/27 10:11:22;;;;;;;4.78;1.83;;;;;;;1.80;44.25;98523.53;5068909;28;20514;-65
2022/03/27 10:13:52;;;;;;;3.58;1.30;;;;;;;1.98;43.86;98520.66;5070261;28;20024;-67
2022/03/27 10:16:24;;;;;;;3.30;1.30;;;;;;;1.65;44.64;98492.88;5071183;28;20516;-65
2022/03/27 10:18:53;;;;;;;2.78;1.33;;;;;;;1.72;46.18;98539.03;5070383;28;20123;-62
2022/03/27 10:21:23;;;;;;;4.60;0.93;;;;;;;1.81;45.39;98546.34;5070718;28;20028;-64
2022/03/27 10:23:55;;;;;;;6.00;1.23;;;;;;;2.14;44.18;98515.19;5071147;28;20056;-63
2022/03/27 10:26:20;;;;;;;2.58;1.05;;;;;;;2.22;43.32;98539.28;5070553;28;20036;-64
2022/03/27 10:28:50;;;;;;;2.38;0.82;;;;;;;1.99;44.25;98541.66;5070409;28;20028;-66
2022/03/27 10:31:18;;;;;;;2.67;1.00;;;;;;;2.07;44.15;98553.53;5070853;28;20079;-62
2022/03/27 10:33:46;;;;;;;3.42;1.10;;;;;;;2.23;43.02;98548.06;5070678;28;20044;-65
2022/03/27 10:36:42;;;;;;;4.25;1.20;;;;;;;2.60;42.86;98558.75;5053118;28;20119;-63
2022/03/27 10:39:14;;;;;;;2.78;1.40;;;;;;;2.77;44.20;98559.41;5052903;28;20340;-65
2022/03/27 10:42:16;;;;;;;2.17;1.13;;;;;;;2.60;42.56;98540.28;5071005;28;20140;-64
2022/03/27 10:44:55;;;;;;;7.15;1.25;;;;;;;2.36;43.01;98570.03;5071385;28;20032;-65
2022/03/27 10:47:23;;;;;;;1.77;0.88;;;;;;;2.15;43.62;98567.03;5070490;28;20037;-66
2022/03/27 10:50:01;;;;;;;3.15;1.10;;;;;;;2.19;44.14;98587.03;5070124;28;20130;-63
2022/03/27 10:52:32;;;;;;;1.85;0.98;;;;;;;2.27;44.10;98590.00;5070497;28;20033;-64
2022/03/27 10:55:01;;;;;;;5.07;1.15;;;;;;;2.38;44.17;98581.34;5052632;28;20090;-63
2022/03/27 10:57:31;;;;;;;1.90;0.80;;;;;;;2.49;43.04;98600.94;5052416;28;20037;-63
2022/03/27 10:59:58;;;;;;;2.33;0.80;;;;;;;2.43;42.83;98596.91;5072434;28;20060;-60
2022/03/27 11:02:43;;;;;;;2.60;0.70;;;;;;;2.37;42.68;98599.97;5074922;28;20042;-64
2022/03/27 11:05:08;;;;;;;2.47;0.80;;;;;;;1.93;43.12;98596.63;5074777;28;20110;-64
2022/03/27 11:07:34;;;;;;;3.28;1.15;;;;;;;1.48;44.21;98607.41;5074330;28;20399;-60
2022/03/27 11:09:59;;;;;;;4.88;1.10;;;;;;;0.90;44.10;98562.63;5074295;28;20125;-64
2022/03/27 11:12:24;;;;;;;3.75;1.10;;;;;;;1.06;44.22;98628.41;5074363;28;20450;-64
2022/03/27 11:14:53;;;;;;;2.83;0.90;;;;;;;1.16;44.70;98628.72;5073858;28;20038;-64
2022/03/27 11:17:43;;;;;;;4.43;0.93;;;;;;;1.09;45.23;98629.09;5073574;28;20146;-66
2022/03/27 11:20:21;;;;;;;3.65;0.93;;;;;;;1.08;44.96;98640.53;5074393;28;20032;-66
2022/03/27 11:22:53;;;;;;;3.13;0.98;;;;;;;1.16;45.05;98650.63;5073845;28;20191;-64
2022/03/27 11:25:48;;;;;;;1.88;0.68;;;;;;;1.64;43.38;98638.94;5074166;28;20033;-65
2022/03/27 11:28:18;;;;;;;2.72;0.70;;;;;;;1.88;41.84;98641.81;5052475;28;20044;-64
2022/03/27 11:30:49;;;;;;;2.28;0.95;;;;;;;1.72;40.66;98631.41;5074191;28;20526;-65
2022/03/27 11:33:26;;;;;;;3.70;0.90;;;;;;;1.29;42.02;98646.31;5056362;28;20471;-64
2022/03/27 11:36:01;;;;;;;1.08;0.60;;;;;;;0.96;42.35;98655.31;5074108;28;20033;-66
2022/03/27 11:38:48;;;;;;;3.40;0.63;;;;;;;0.79;42.78;98666.03;5074173;28;20106;-65
2022/03/27 11:41:54;;;;;;;2.53;0.60;;;;;;;0.85;42.16;98612.97;5063209;28;20075;-65
2022/03/27 11:47:24;;;;;;;3.33;1.02;;;;;;;1.88;40.38;98670.84;5056055;28;20029;-62
2022/03/27 11:49:51;;;;;;;2.88;1.00;;;;;;;2.01;39.68;98669.13;5073884;28;20071;-65
2022/03/27 11:52:19;;;;;;;1.48;0.80;;;;;;;1.91;40.30;98688.28;5056225;28;20028;-66
2022/03/27 11:54:47;;;;;;;2.00;0.80;;;;;;;1.66;40.25;98676.63;5073893;28;20024;-66